Terminal Aerodrome Forecast
Issued by NWS

Home | Current Version | Previous Version | Graphics & Text | Print | Product List | Glossary On
Versions: 1 2 3 4 5 6 7 8 9 10 11 12 13 14 15 16 17 18 19
000
FTUS43 KICT 281405 AAA
TAFSLN
TAF AMD
KSLN 281405Z 2814/0112 15008KT 5SM -SN BR OVC035
      TEMPO 2814/2816 1SM -SN BR OVC012
     FM281600 15010KT 6SM -SN OVC025
     FM010800 19006KT 4SM -SN BKN008=

USA.gov is the U.S. government's official web portal to all federal, state and local government web resources and services.